RJKI(METAR)
12/11 17:00
RJKI 110800Z 16009KT 7000 RA FEW005 SCT010 BKN030 22/21 Q1014 RMK
A2994=
戻る
トップページへ戻る
IMOC Co,.Ltd.